sensor_id;sensor_type;location;lat;lon;timestamp;P1;durP1;ratioP1;P2;durP2;ratioP2
65234;SDS011;51820;48.374;10.930;2023-02-15T00:02:13;27.95;;;9.07;;
65234;SDS011;51820;48.374;10.930;2023-02-15T00:04:43;63.53;;;11.65;;
65234;SDS011;51820;48.374;10.930;2023-02-15T00:07:14;39.58;;;9.07;;
65234;SDS011;51820;48.374;10.930;2023-02-15T00:09:44;31.05;;;9.25;;
65234;SDS011;51820;48.374;10.930;2023-02-15T00:12:13;32.47;;;9.70;;
65234;SDS011;51820;48.374;10.930;2023-02-15T00:14:43;33.67;;;9.32;;
65234;SDS011;51820;48.374;10.930;2023-02-15T00:17:11;48.03;;;9.95;;
65234;SDS011;51820;48.374;10.930;2023-02-15T00:19:40;28.65;;;9.45;;
65234;SDS011;51820;48.374;10.930;2023-02-15T00:22:10;52.05;;;9.57;;
65234;SDS011;51820;48.374;10.930;2023-02-15T00:24:38;32.97;;;8.15;;
65234;SDS011;51820;48.374;10.930;2023-02-15T00:27:06;41.65;;;9.10;;
65234;SDS011;51820;48.374;10.930;2023-02-15T00:29:38;24.50;;;9.23;;
65234;SDS011;51820;48.374;10.930;2023-02-15T00:32:06;26.45;;;8.85;;
65234;SDS011;51820;48.374;10.930;2023-02-15T00:34:35;19.35;;;8.25;;
65234;SDS011;51820;48.374;10.930;2023-02-15T00:37:03;21.88;;;8.68;;
65234;SDS011;51820;48.374;10.930;2023-02-15T00:39:33;53.10;;;10.00;;
65234;SDS011;51820;48.374;10.930;2023-02-15T00:42:01;27.67;;;8.57;;
65234;SDS011;51820;48.374;10.930;2023-02-15T00:44:30;24.45;;;8.27;;
65234;SDS011;51820;48.374;10.930;2023-02-15T00:46:59;21.23;;;9.05;;
65234;SDS011;51820;48.374;10.930;2023-02-15T00:49:27;42.80;;;8.02;;
65234;SDS011;51820;48.374;10.930;2023-02-15T00:51:56;30.50;;;8.00;;
65234;SDS011;51820;48.374;10.930;2023-02-15T00:54:25;30.08;;;7.88;;
65234;SDS011;51820;48.374;10.930;2023-02-15T00:56:56;29.23;;;8.07;;
65234;SDS011;51820;48.374;10.930;2023-02-15T00:59:24;24.88;;;7.85;;
65234;SDS011;51820;48.374;10.930;2023-02-15T01:01:53;38.42;;;7.70;;
65234;SDS011;51820;48.374;10.930;2023-02-15T01:04:22;23.75;;;7.75;;
65234;SDS011;51820;48.374;10.930;2023-02-15T01:06:50;20.23;;;7.47;;
65234;SDS011;51820;48.374;10.930;2023-02-15T01:09:19;20.42;;;8.98;;
65234;SDS011;51820;48.374;10.930;2023-02-15T01:11:48;23.35;;;7.72;;
65234;SDS011;51820;48.374;10.930;2023-02-15T01:14:19;19.77;;;7.95;;
65234;SDS011;51820;48.374;10.930;2023-02-15T01:16:47;23.55;;;7.45;;
65234;SDS011;51820;48.374;10.930;2023-02-15T01:19:16;18.85;;;7.63;;
65234;SDS011;51820;48.374;10.930;2023-02-15T01:21:44;17.70;;;7.22;;
65234;SDS011;51820;48.374;10.930;2023-02-15T01:24:13;22.75;;;8.20;;
65234;SDS011;51820;48.374;10.930;2023-02-15T01:26:41;15.52;;;7.03;;
65234;SDS011;51820;48.374;10.930;2023-02-15T01:29:10;17.88;;;7.25;;
65234;SDS011;51820;48.374;10.930;2023-02-15T01:31:40;73.97;;;8.85;;
65234;SDS011;51820;48.374;10.930;2023-02-15T01:34:08;17.75;;;7.22;;
65234;SDS011;51820;48.374;10.930;2023-02-15T01:36:37;15.43;;;6.38;;
65234;SDS011;51820;48.374;10.930;2023-02-15T01:39:06;45.35;;;7.85;;
65234;SDS011;51820;48.374;10.930;2023-02-15T01:41:36;32.45;;;7.18;;
65234;SDS011;51820;48.374;10.930;2023-02-15T01:47:04;42.90;;;8.27;;
65234;SDS011;51820;48.374;10.930;2023-02-15T01:49:32;31.08;;;7.85;;
65234;SDS011;51820;48.374;10.930;2023-02-15T01:52:01;27.38;;;7.03;;
65234;SDS011;51820;48.374;10.930;2023-02-15T01:54:31;24.75;;;8.07;;
65234;SDS011;51820;48.374;10.930;2023-02-15T01:57:04;58.83;;;8.90;;
65234;SDS011;51820;48.374;10.930;2023-02-15T01:59:36;20.02;;;7.35;;
65234;SDS011;51820;48.374;10.930;2023-02-15T02:02:08;34.97;;;7.93;;
65234;SDS011;51820;48.374;10.930;2023-02-15T02:04:53;28.85;;;7.78;;
65234;SDS011;51820;48.374;10.930;2023-02-15T02:07:26;22.20;;;6.85;;
65234;SDS011;51820;48.374;10.930;2023-02-15T02:09:58;28.25;;;8.38;;
65234;SDS011;51820;48.374;10.930;2023-02-15T02:12:32;18.55;;;6.63;;
65234;SDS011;51820;48.374;10.930;2023-02-15T02:15:02;22.48;;;7.85;;
65234;SDS011;51820;48.374;10.930;2023-02-15T02:17:37;19.73;;;7.88;;
65234;SDS011;51820;48.374;10.930;2023-02-15T02:20:17;29.20;;;8.05;;
65234;SDS011;51820;48.374;10.930;2023-02-15T02:23:07;17.52;;;8.05;;
65234;SDS011;51820;48.374;10.930;2023-02-15T02:26:03;21.65;;;7.75;;
65234;SDS011;51820;48.374;10.930;2023-02-15T02:29:12;30.83;;;7.53;;
65234;SDS011;51820;48.374;10.930;2023-02-15T02:32:04;20.35;;;7.03;;
65234;SDS011;51820;48.374;10.930;2023-02-15T02:34:58;25.73;;;8.10;;
65234;SDS011;51820;48.374;10.930;2023-02-15T02:37:30;23.55;;;8.48;;
65234;SDS011;51820;48.374;10.930;2023-02-15T02:40:08;38.50;;;7.80;;
65234;SDS011;51820;48.374;10.930;2023-02-15T02:42:43;23.58;;;7.95;;
65234;SDS011;51820;48.374;10.930;2023-02-15T02:45:19;21.13;;;7.13;;
65234;SDS011;51820;48.374;10.930;2023-02-15T02:47:52;27.35;;;7.85;;
65234;SDS011;51820;48.374;10.930;2023-02-15T02:50:26;15.15;;;7.03;;
65234;SDS011;51820;48.374;10.930;2023-02-15T02:52:56;26.25;;;7.38;;
65234;SDS011;51820;48.374;10.930;2023-02-15T02:55:27;22.95;;;7.05;;
65234;SDS011;51820;48.374;10.930;2023-02-15T02:58:00;32.42;;;7.63;;
65234;SDS011;51820;48.374;10.930;2023-02-15T03:00:44;15.18;;;6.75;;
65234;SDS011;51820;48.374;10.930;2023-02-15T03:03:18;30.33;;;7.55;;
65234;SDS011;51820;48.374;10.930;2023-02-15T03:05:53;15.85;;;6.63;;
65234;SDS011;51820;48.374;10.930;2023-02-15T03:08:54;22.80;;;7.30;;
65234;SDS011;51820;48.374;10.930;2023-02-15T03:11:25;43.67;;;6.90;;
65234;SDS011;51820;48.374;10.930;2023-02-15T03:13:54;21.38;;;7.75;;
65234;SDS011;51820;48.374;10.930;2023-02-15T03:16:25;23.23;;;7.60;;
65234;SDS011;51820;48.374;10.930;2023-02-15T03:18:54;16.98;;;7.78;;
65234;SDS011;51820;48.374;10.930;2023-02-15T03:21:28;21.08;;;6.90;;
65234;SDS011;51820;48.374;10.930;2023-02-15T03:24:06;21.02;;;7.78;;
65234;SDS011;51820;48.374;10.930;2023-02-15T03:26:37;22.05;;;6.97;;
65234;SDS011;51820;48.374;10.930;2023-02-15T03:29:07;30.35;;;6.55;;
65234;SDS011;51820;48.374;10.930;2023-02-15T03:31:38;45.78;;;7.10;;
65234;SDS011;51820;48.374;10.930;2023-02-15T03:34:12;19.70;;;7.00;;
65234;SDS011;51820;48.374;10.930;2023-02-15T03:36:45;32.67;;;7.30;;
65234;SDS011;51820;48.374;10.930;2023-02-15T03:39:20;23.00;;;7.20;;
65234;SDS011;51820;48.374;10.930;2023-02-15T03:41:55;38.38;;;7.30;;
65234;SDS011;51820;48.374;10.930;2023-02-15T03:44:27;27.55;;;7.57;;
65234;SDS011;51820;48.374;10.930;2023-02-15T03:46:58;16.30;;;7.13;;
65234;SDS011;51820;48.374;10.930;2023-02-15T03:49:37;13.18;;;6.57;;
65234;SDS011;51820;48.374;10.930;2023-02-15T03:52:11;31.00;;;6.57;;
65234;SDS011;51820;48.374;10.930;2023-02-15T03:54:41;17.75;;;6.63;;
65234;SDS011;51820;48.374;10.930;2023-02-15T03:57:11;30.00;;;7.57;;
65234;SDS011;51820;48.374;10.930;2023-02-15T04:00:02;20.90;;;7.25;;
65234;SDS011;51820;48.374;10.930;2023-02-15T04:03:11;15.55;;;6.57;;
65234;SDS011;51820;48.374;10.930;2023-02-15T04:05:48;13.63;;;6.32;;
65234;SDS011;51820;48.374;10.930;2023-02-15T04:08:18;21.75;;;6.45;;
65234;SDS011;51820;48.374;10.930;2023-02-15T04:10:46;29.70;;;6.47;;
65234;SDS011;51820;48.374;10.930;2023-02-15T04:13:23;18.50;;;6.75;;
65234;SDS011;51820;48.374;10.930;2023-02-15T04:15:57;19.25;;;6.20;;
65234;SDS011;51820;48.374;10.930;2023-02-15T04:18:35;26.23;;;7.88;;
65234;SDS011;51820;48.374;10.930;2023-02-15T04:21:22;15.75;;;6.57;;
65234;SDS011;51820;48.374;10.930;2023-02-15T04:24:11;16.75;;;6.93;;
65234;SDS011;51820;48.374;10.930;2023-02-15T04:26:58;29.60;;;6.57;;
65234;SDS011;51820;48.374;10.930;2023-02-15T04:29:27;23.20;;;6.57;;
65234;SDS011;51820;48.374;10.930;2023-02-15T04:31:56;21.15;;;6.45;;
65234;SDS011;51820;48.374;10.930;2023-02-15T04:34:25;21.40;;;7.65;;
65234;SDS011;51820;48.374;10.930;2023-02-15T04:36:54;18.15;;;7.03;;
65234;SDS011;51820;48.374;10.930;2023-02-15T04:39:24;47.50;;;7.10;;
65234;SDS011;51820;48.374;10.930;2023-02-15T04:41:52;23.33;;;7.32;;
65234;SDS011;51820;48.374;10.930;2023-02-15T04:44:21;33.00;;;7.13;;
65234;SDS011;51820;48.374;10.930;2023-02-15T04:46:49;16.52;;;6.60;;
65234;SDS011;51820;48.374;10.930;2023-02-15T04:49:18;30.17;;;7.20;;
65234;SDS011;51820;48.374;10.930;2023-02-15T04:51:47;32.85;;;7.22;;
65234;SDS011;51820;48.374;10.930;2023-02-15T04:54:15;17.75;;;6.72;;
65234;SDS011;51820;48.374;10.930;2023-02-15T04:56:46;20.73;;;6.65;;
65234;SDS011;51820;48.374;10.930;2023-02-15T04:59:14;17.00;;;7.10;;
65234;SDS011;51820;48.374;10.930;2023-02-15T05:01:43;23.83;;;6.50;;
65234;SDS011;51820;48.374;10.930;2023-02-15T05:04:11;25.88;;;7.32;;
65234;SDS011;51820;48.374;10.930;2023-02-15T05:06:40;19.00;;;7.13;;
65234;SDS011;51820;48.374;10.930;2023-02-15T05:09:09;21.88;;;6.47;;
65234;SDS011;51820;48.374;10.930;2023-02-15T05:11:38;18.83;;;6.13;;
65234;SDS011;51820;48.374;10.930;2023-02-15T05:14:08;28.33;;;6.13;;
65234;SDS011;51820;48.374;10.930;2023-02-15T05:16:36;13.80;;;6.00;;
65234;SDS011;51820;48.374;10.930;2023-02-15T05:19:05;13.02;;;5.80;;
65234;SDS011;51820;48.374;10.930;2023-02-15T05:21:33;12.85;;;6.20;;
65234;SDS011;51820;48.374;10.930;2023-02-15T05:24:02;13.25;;;6.57;;
65234;SDS011;51820;48.374;10.930;2023-02-15T05:26:51;12.20;;;5.53;;
65234;SDS011;51820;48.374;10.930;2023-02-15T05:29:38;14.43;;;6.22;;
65234;SDS011;51820;48.374;10.930;2023-02-15T05:32:07;15.57;;;6.05;;
65234;SDS011;51820;48.374;10.930;2023-02-15T05:34:36;14.40;;;6.20;;
65234;SDS011;51820;48.374;10.930;2023-02-15T05:37:04;27.88;;;5.68;;
65234;SDS011;51820;48.374;10.930;2023-02-15T05:39:33;17.98;;;6.30;;
65234;SDS011;51820;48.374;10.930;2023-02-15T05:42:02;13.25;;;5.72;;
65234;SDS011;51820;48.374;10.930;2023-02-15T05:44:30;36.58;;;6.75;;
65234;SDS011;51820;48.374;10.930;2023-02-15T05:47:00;21.88;;;6.55;;
65234;SDS011;51820;48.374;10.930;2023-02-15T05:49:29;18.42;;;6.70;;
65234;SDS011;51820;48.374;10.930;2023-02-15T05:51:57;12.48;;;6.25;;
65234;SDS011;51820;48.374;10.930;2023-02-15T05:54:26;12.10;;;5.78;;
65234;SDS011;51820;48.374;10.930;2023-02-15T05:56:55;13.75;;;6.30;;
65234;SDS011;51820;48.374;10.930;2023-02-15T05:59:23;12.55;;;6.18;;
65234;SDS011;51820;48.374;10.930;2023-02-15T06:01:52;13.50;;;6.22;;
65234;SDS011;51820;48.374;10.930;2023-02-15T06:04:21;14.85;;;7.00;;
65234;SDS011;51820;48.374;10.930;2023-02-15T06:06:50;21.67;;;6.65;;
65234;SDS011;51820;48.374;10.930;2023-02-15T06:09:18;16.55;;;7.10;;
65234;SDS011;51820;48.374;10.930;2023-02-15T06:11:47;21.02;;;7.45;;
65234;SDS011;51820;48.374;10.930;2023-02-15T06:14:16;19.27;;;7.03;;
65234;SDS011;51820;48.374;10.930;2023-02-15T06:16:44;15.15;;;6.80;;
65234;SDS011;51820;48.374;10.930;2023-02-15T06:19:12;16.70;;;6.75;;
65234;SDS011;51820;48.374;10.930;2023-02-15T06:21:43;24.02;;;7.25;;
65234;SDS011;51820;48.374;10.930;2023-02-15T06:24:11;16.30;;;6.30;;
65234;SDS011;51820;48.374;10.930;2023-02-15T06:26:40;17.92;;;6.45;;
65234;SDS011;51820;48.374;10.930;2023-02-15T06:29:09;35.47;;;7.60;;
65234;SDS011;51820;48.374;10.930;2023-02-15T06:31:37;20.83;;;6.78;;
65234;SDS011;51820;48.374;10.930;2023-02-15T06:34:06;33.05;;;7.32;;
65234;SDS011;51820;48.374;10.930;2023-02-15T06:36:34;18.88;;;6.40;;
65234;SDS011;51820;48.374;10.930;2023-02-15T06:39:07;14.13;;;6.40;;
65234;SDS011;51820;48.374;10.930;2023-02-15T06:41:35;17.13;;;7.50;;
65234;SDS011;51820;48.374;10.930;2023-02-15T06:44:04;18.23;;;6.90;;
65234;SDS011;51820;48.374;10.930;2023-02-15T06:46:32;15.88;;;6.85;;
65234;SDS011;51820;48.374;10.930;2023-02-15T06:49:01;14.02;;;6.38;;
65234;SDS011;51820;48.374;10.930;2023-02-15T06:51:29;13.60;;;6.55;;
65234;SDS011;51820;48.374;10.930;2023-02-15T06:54:00;13.63;;;6.45;;
65234;SDS011;51820;48.374;10.930;2023-02-15T06:56:30;15.43;;;6.60;;
65234;SDS011;51820;48.374;10.930;2023-02-15T06:58:58;17.70;;;7.07;;
65234;SDS011;51820;48.374;10.930;2023-02-15T07:01:27;14.73;;;6.13;;
65234;SDS011;51820;48.374;10.930;2023-02-15T07:03:55;13.98;;;6.22;;
65234;SDS011;51820;48.374;10.930;2023-02-15T07:06:24;13.95;;;6.85;;
65234;SDS011;51820;48.374;10.930;2023-02-15T07:08:52;15.25;;;5.95;;
65234;SDS011;51820;48.374;10.930;2023-02-15T07:11:21;12.95;;;6.60;;
65234;SDS011;51820;48.374;10.930;2023-02-15T07:14:09;13.48;;;6.28;;
65234;SDS011;51820;48.374;10.930;2023-02-15T07:16:37;13.35;;;6.15;;
65234;SDS011;51820;48.374;10.930;2023-02-15T07:19:06;15.18;;;6.10;;
65234;SDS011;51820;48.374;10.930;2023-02-15T07:21:35;14.88;;;7.05;;
65234;SDS011;51820;48.374;10.930;2023-02-15T07:24:03;15.27;;;6.70;;
65234;SDS011;51820;48.374;10.930;2023-02-15T07:26:32;13.82;;;6.68;;
65234;SDS011;51820;48.374;10.930;2023-02-15T07:29:00;13.05;;;6.18;;
65234;SDS011;51820;48.374;10.930;2023-02-15T07:31:32;11.93;;;6.32;;
65234;SDS011;51820;48.374;10.930;2023-02-15T07:34:00;14.85;;;6.60;;
65234;SDS011;51820;48.374;10.930;2023-02-15T07:36:29;14.35;;;6.40;;
65234;SDS011;51820;48.374;10.930;2023-02-15T07:38:58;16.00;;;7.65;;
65234;SDS011;51820;48.374;10.930;2023-02-15T07:41:26;15.02;;;6.70;;
65234;SDS011;51820;48.374;10.930;2023-02-15T07:43:55;19.05;;;6.85;;
65234;SDS011;51820;48.374;10.930;2023-02-15T07:46:27;13.02;;;6.30;;
65234;SDS011;51820;48.374;10.930;2023-02-15T07:49:00;15.38;;;7.28;;
65234;SDS011;51820;48.374;10.930;2023-02-15T07:51:38;18.00;;;7.18;;
65234;SDS011;51820;48.374;10.930;2023-02-15T07:54:07;14.50;;;6.65;;
65234;SDS011;51820;48.374;10.930;2023-02-15T07:56:39;15.77;;;6.82;;
65234;SDS011;51820;48.374;10.930;2023-02-15T07:59:12;20.60;;;8.15;;
65234;SDS011;51820;48.374;10.930;2023-02-15T08:01:45;17.05;;;7.82;;
65234;SDS011;51820;48.374;10.930;2023-02-15T08:04:15;15.15;;;7.22;;
65234;SDS011;51820;48.374;10.930;2023-02-15T08:06:44;21.77;;;7.57;;
65234;SDS011;51820;48.374;10.930;2023-02-15T08:09:13;14.63;;;7.38;;
65234;SDS011;51820;48.374;10.930;2023-02-15T08:11:41;15.88;;;7.32;;
65234;SDS011;51820;48.374;10.930;2023-02-15T08:14:11;16.60;;;7.90;;
65234;SDS011;51820;48.374;10.930;2023-02-15T08:16:41;16.70;;;7.70;;
65234;SDS011;51820;48.374;10.930;2023-02-15T08:19:13;18.88;;;8.82;;
65234;SDS011;51820;48.374;10.930;2023-02-15T08:21:47;13.15;;;6.85;;
65234;SDS011;51820;48.374;10.930;2023-02-15T08:24:18;20.27;;;7.80;;
65234;SDS011;51820;48.374;10.930;2023-02-15T08:26:48;14.77;;;7.63;;
65234;SDS011;51820;48.374;10.930;2023-02-15T08:29:23;15.98;;;7.68;;
65234;SDS011;51820;48.374;10.930;2023-02-15T08:31:53;17.48;;;7.93;;
65234;SDS011;51820;48.374;10.930;2023-02-15T08:34:27;15.77;;;7.88;;
65234;SDS011;51820;48.374;10.930;2023-02-15T08:36:56;16.38;;;7.57;;
65234;SDS011;51820;48.374;10.930;2023-02-15T08:39:25;16.95;;;8.20;;
65234;SDS011;51820;48.374;10.930;2023-02-15T08:41:55;20.98;;;8.85;;
65234;SDS011;51820;48.374;10.930;2023-02-15T08:44:23;50.00;;;22.48;;
65234;SDS011;51820;48.374;10.930;2023-02-15T08:46:52;17.80;;;9.43;;
65234;SDS011;51820;48.374;10.930;2023-02-15T08:49:24;16.45;;;8.38;;
65234;SDS011;51820;48.374;10.930;2023-02-15T08:51:54;12.50;;;6.57;;
65234;SDS011;51820;48.374;10.930;2023-02-15T08:54:22;17.13;;;8.07;;
65234;SDS011;51820;48.374;10.930;2023-02-15T08:56:51;14.18;;;6.63;;
65234;SDS011;51820;48.374;10.930;2023-02-15T08:59:20;13.90;;;6.72;;
65234;SDS011;51820;48.374;10.930;2023-02-15T09:01:51;15.40;;;6.93;;
65234;SDS011;51820;48.374;10.930;2023-02-15T09:04:19;15.32;;;7.85;;
65234;SDS011;51820;48.374;10.930;2023-02-15T09:06:49;16.40;;;7.97;;
65234;SDS011;51820;48.374;10.930;2023-02-15T09:09:19;17.40;;;8.13;;
65234;SDS011;51820;48.374;10.930;2023-02-15T09:11:49;15.73;;;7.53;;
65234;SDS011;51820;48.374;10.930;2023-02-15T09:14:25;15.65;;;8.35;;
65234;SDS011;51820;48.374;10.930;2023-02-15T09:16:55;17.00;;;8.38;;
65234;SDS011;51820;48.374;10.930;2023-02-15T09:19:24;16.95;;;8.45;;
65234;SDS011;51820;48.374;10.930;2023-02-15T09:21:53;18.75;;;7.95;;
65234;SDS011;51820;48.374;10.930;2023-02-15T09:24:23;15.32;;;8.02;;
65234;SDS011;51820;48.374;10.930;2023-02-15T09:26:51;17.65;;;8.35;;
65234;SDS011;51820;48.374;10.930;2023-02-15T09:29:20;16.38;;;8.13;;
65234;SDS011;51820;48.374;10.930;2023-02-15T09:31:49;16.15;;;7.65;;
65234;SDS011;51820;48.374;10.930;2023-02-15T09:34:21;16.58;;;7.15;;
65234;SDS011;51820;48.374;10.930;2023-02-15T09:36:50;16.23;;;7.70;;
65234;SDS011;51820;48.374;10.930;2023-02-15T09:39:23;17.13;;;8.02;;
65234;SDS011;51820;48.374;10.930;2023-02-15T09:42:16;13.63;;;7.40;;
65234;SDS011;51820;48.374;10.930;2023-02-15T09:51:17;17.30;;;8.52;;
65234;SDS011;51820;48.374;10.930;2023-02-15T09:54:13;18.38;;;8.73;;
65234;SDS011;51820;48.374;10.930;2023-02-15T09:56:57;16.42;;;7.82;;
65234;SDS011;51820;48.374;10.930;2023-02-15T09:59:35;16.02;;;7.57;;
65234;SDS011;51820;48.374;10.930;2023-02-15T10:02:14;16.27;;;7.10;;
65234;SDS011;51820;48.374;10.930;2023-02-15T10:04:58;15.20;;;8.18;;
65234;SDS011;51820;48.374;10.930;2023-02-15T10:07:48;15.88;;;8.52;;
65234;SDS011;51820;48.374;10.930;2023-02-15T10:10:45;15.15;;;7.75;;
65234;SDS011;51820;48.374;10.930;2023-02-15T10:13:24;15.98;;;8.38;;
65234;SDS011;51820;48.374;10.930;2023-02-15T10:16:11;17.00;;;8.38;;
65234;SDS011;51820;48.374;10.930;2023-02-15T10:18:53;17.80;;;8.38;;
65234;SDS011;51820;48.374;10.930;2023-02-15T10:22:14;19.50;;;9.18;;
65234;SDS011;51820;48.374;10.930;2023-02-15T10:28:30;18.20;;;9.23;;
65234;SDS011;51820;48.374;10.930;2023-02-15T10:31:08;17.95;;;8.65;;
65234;SDS011;51820;48.374;10.930;2023-02-15T10:33:47;17.05;;;8.75;;
65234;SDS011;51820;48.374;10.930;2023-02-15T10:36:24;17.95;;;9.05;;
65234;SDS011;51820;48.374;10.930;2023-02-15T10:39:02;16.85;;;8.98;;
65234;SDS011;51820;48.374;10.930;2023-02-15T10:41:37;19.35;;;9.93;;
65234;SDS011;51820;48.374;10.930;2023-02-15T10:44:19;20.40;;;9.20;;
65234;SDS011;51820;48.374;10.930;2023-02-15T10:47:05;19.02;;;10.13;;
65234;SDS011;51820;48.374;10.930;2023-02-15T10:50:10;18.55;;;9.68;;
65234;SDS011;51820;48.374;10.930;2023-02-15T10:52:56;19.30;;;9.80;;
65234;SDS011;51820;48.374;10.930;2023-02-15T10:55:37;17.10;;;9.25;;
65234;SDS011;51820;48.374;10.930;2023-02-15T10:58:18;20.95;;;9.65;;
65234;SDS011;51820;48.374;10.930;2023-02-15T11:00:58;20.85;;;9.52;;
65234;SDS011;51820;48.374;10.930;2023-02-15T11:03:40;19.65;;;9.45;;
65234;SDS011;51820;48.374;10.930;2023-02-15T11:06:18;18.60;;;9.32;;
65234;SDS011;51820;48.374;10.930;2023-02-15T11:08:49;20.10;;;9.32;;
65234;SDS011;51820;48.374;10.930;2023-02-15T11:11:22;17.58;;;9.07;;
65234;SDS011;51820;48.374;10.930;2023-02-15T11:13:57;19.63;;;9.68;;
65234;SDS011;51820;48.374;10.930;2023-02-15T11:16:29;19.15;;;9.77;;
65234;SDS011;51820;48.374;10.930;2023-02-15T11:19:05;19.00;;;10.10;;
65234;SDS011;51820;48.374;10.930;2023-02-15T11:21:39;20.48;;;9.90;;
65234;SDS011;51820;48.374;10.930;2023-02-15T11:24:12;21.27;;;10.20;;
65234;SDS011;51820;48.374;10.930;2023-02-15T11:26:42;17.67;;;9.40;;
65234;SDS011;51820;48.374;10.930;2023-02-15T11:29:13;15.85;;;8.93;;
65234;SDS011;51820;48.374;10.930;2023-02-15T11:31:51;20.17;;;10.30;;
65234;SDS011;51820;48.374;10.930;2023-02-15T11:34:27;19.20;;;10.68;;
65234;SDS011;51820;48.374;10.930;2023-02-15T11:37:00;17.45;;;9.25;;
65234;SDS011;51820;48.374;10.930;2023-02-15T11:39:34;17.40;;;9.43;;
65234;SDS011;51820;48.374;10.930;2023-02-15T11:42:04;19.73;;;10.10;;
65234;SDS011;51820;48.374;10.930;2023-02-15T11:44:41;18.73;;;9.52;;
65234;SDS011;51820;48.374;10.930;2023-02-15T11:47:15;21.48;;;10.30;;
65234;SDS011;51820;48.374;10.930;2023-02-15T11:49:43;18.00;;;9.93;;
65234;SDS011;51820;48.374;10.930;2023-02-15T11:52:13;18.15;;;10.38;;
65234;SDS011;51820;48.374;10.930;2023-02-15T11:54:45;17.65;;;10.40;;
65234;SDS011;51820;48.374;10.930;2023-02-15T11:57:17;15.98;;;9.68;;
65234;SDS011;51820;48.374;10.930;2023-02-15T11:59:51;17.23;;;9.77;;
65234;SDS011;51820;48.374;10.930;2023-02-15T12:02:25;17.08;;;10.18;;
65234;SDS011;51820;48.374;10.930;2023-02-15T12:04:56;19.13;;;9.80;;
65234;SDS011;51820;48.374;10.930;2023-02-15T12:07:28;17.55;;;10.15;;
65234;SDS011;51820;48.374;10.930;2023-02-15T12:10:00;22.70;;;11.23;;
65234;SDS011;51820;48.374;10.930;2023-02-15T12:12:34;20.00;;;10.98;;
65234;SDS011;51820;48.374;10.930;2023-02-15T12:15:05;16.77;;;10.43;;
65234;SDS011;51820;48.374;10.930;2023-02-15T12:17:35;17.70;;;10.43;;
65234;SDS011;51820;48.374;10.930;2023-02-15T12:20:20;21.02;;;11.25;;
65234;SDS011;51820;48.374;10.930;2023-02-15T12:22:53;17.83;;;10.43;;
65234;SDS011;51820;48.374;10.930;2023-02-15T12:25:29;16.25;;;10.10;;
65234;SDS011;51820;48.374;10.930;2023-02-15T12:28:03;18.45;;;11.43;;
65234;SDS011;51820;48.374;10.930;2023-02-15T12:30:44;17.13;;;11.25;;
65234;SDS011;51820;48.374;10.930;2023-02-15T12:33:15;18.60;;;10.73;;
65234;SDS011;51820;48.374;10.930;2023-02-15T12:35:54;19.20;;;11.43;;
65234;SDS011;51820;48.374;10.930;2023-02-15T12:38:27;17.85;;;11.57;;
65234;SDS011;51820;48.374;10.930;2023-02-15T12:40:57;19.70;;;10.65;;
65234;SDS011;51820;48.374;10.930;2023-02-15T12:43:30;20.65;;;11.45;;
65234;SDS011;51820;48.374;10.930;2023-02-15T12:46:18;17.25;;;10.80;;
65234;SDS011;51820;48.374;10.930;2023-02-15T12:49:04;19.30;;;11.83;;
65234;SDS011;51820;48.374;10.930;2023-02-15T12:51:42;17.52;;;11.05;;
65234;SDS011;51820;48.374;10.930;2023-02-15T12:54:23;18.67;;;11.00;;
65234;SDS011;51820;48.374;10.930;2023-02-15T12:56:59;18.50;;;11.35;;
65234;SDS011;51820;48.374;10.930;2023-02-15T12:59:28;19.20;;;11.55;;
65234;SDS011;51820;48.374;10.930;2023-02-15T13:01:58;21.27;;;10.83;;
65234;SDS011;51820;48.374;10.930;2023-02-15T13:04:47;19.92;;;11.32;;
65234;SDS011;51820;48.374;10.930;2023-02-15T13:07:17;17.40;;;11.15;;
65234;SDS011;51820;48.374;10.930;2023-02-15T13:09:47;20.85;;;12.05;;
65234;SDS011;51820;48.374;10.930;2023-02-15T13:12:17;16.60;;;10.90;;
65234;SDS011;51820;48.374;10.930;2023-02-15T13:14:48;101.53;;;51.57;;
65234;SDS011;51820;48.374;10.930;2023-02-15T13:17:23;129.90;;;66.20;;
65234;SDS011;51820;48.374;10.930;2023-02-15T13:19:56;24.00;;;14.07;;
65234;SDS011;51820;48.374;10.930;2023-02-15T13:22:32;20.05;;;12.05;;
65234;SDS011;51820;48.374;10.930;2023-02-15T13:25:09;22.23;;;11.15;;
65234;SDS011;51820;48.374;10.930;2023-02-15T13:27:41;19.67;;;11.50;;
65234;SDS011;51820;48.374;10.930;2023-02-15T13:30:20;20.25;;;11.05;;
65234;SDS011;51820;48.374;10.930;2023-02-15T13:32:55;20.58;;;12.07;;
65234;SDS011;51820;48.374;10.930;2023-02-15T13:35:36;19.55;;;11.40;;
65234;SDS011;51820;48.374;10.930;2023-02-15T13:38:39;20.10;;;11.50;;
65234;SDS011;51820;48.374;10.930;2023-02-15T13:41:14;21.43;;;12.27;;
65234;SDS011;51820;48.374;10.930;2023-02-15T13:43:50;20.55;;;12.15;;
65234;SDS011;51820;48.374;10.930;2023-02-15T13:46:31;21.13;;;12.05;;
65234;SDS011;51820;48.374;10.930;2023-02-15T13:49:14;19.63;;;12.23;;
65234;SDS011;51820;48.374;10.930;2023-02-15T13:51:51;23.38;;;12.45;;
65234;SDS011;51820;48.374;10.930;2023-02-15T13:54:37;21.77;;;12.60;;
65234;SDS011;51820;48.374;10.930;2023-02-15T13:57:21;20.42;;;11.63;;
65234;SDS011;51820;48.374;10.930;2023-02-15T14:00:13;21.20;;;11.02;;
65234;SDS011;51820;48.374;10.930;2023-02-15T14:02:57;21.27;;;12.38;;
65234;SDS011;51820;48.374;10.930;2023-02-15T14:05:51;19.83;;;12.20;;
65234;SDS011;51820;48.374;10.930;2023-02-15T14:08:34;22.17;;;12.07;;
65234;SDS011;51820;48.374;10.930;2023-02-15T14:11:15;18.77;;;11.63;;
65234;SDS011;51820;48.374;10.930;2023-02-15T14:13:57;20.73;;;11.40;;
65234;SDS011;51820;48.374;10.930;2023-02-15T14:16:40;20.58;;;11.88;;
65234;SDS011;51820;48.374;10.930;2023-02-15T14:19:34;22.60;;;12.32;;
65234;SDS011;51820;48.374;10.930;2023-02-15T14:22:09;22.90;;;12.33;;
65234;SDS011;51820;48.374;10.930;2023-02-15T14:24:46;21.55;;;12.02;;
65234;SDS011;51820;48.374;10.930;2023-02-15T14:27:30;20.58;;;12.02;;
65234;SDS011;51820;48.374;10.930;2023-02-15T14:30:13;20.42;;;11.73;;
65234;SDS011;51820;48.374;10.930;2023-02-15T14:32:46;23.80;;;13.20;;
65234;SDS011;51820;48.374;10.930;2023-02-15T14:35:17;25.93;;;13.30;;
65234;SDS011;51820;48.374;10.930;2023-02-15T14:37:49;21.02;;;12.40;;
65234;SDS011;51820;48.374;10.930;2023-02-15T14:40:29;24.27;;;11.98;;
65234;SDS011;51820;48.374;10.930;2023-02-15T14:43:24;24.33;;;12.70;;
65234;SDS011;51820;48.374;10.930;2023-02-15T14:46:00;24.77;;;13.13;;
65234;SDS011;51820;48.374;10.930;2023-02-15T14:48:37;22.07;;;12.80;;
65234;SDS011;51820;48.374;10.930;2023-02-15T14:51:09;20.65;;;12.25;;
65234;SDS011;51820;48.374;10.930;2023-02-15T14:53:40;23.52;;;12.10;;
65234;SDS011;51820;48.374;10.930;2023-02-15T14:56:22;20.60;;;12.18;;
65234;SDS011;51820;48.374;10.930;2023-02-15T14:58:59;19.23;;;12.10;;
65234;SDS011;51820;48.374;10.930;2023-02-15T15:01:40;29.33;;;12.63;;
65234;SDS011;51820;48.374;10.930;2023-02-15T15:04:10;21.25;;;12.48;;
65234;SDS011;51820;48.374;10.930;2023-02-15T15:06:41;23.40;;;12.57;;
65234;SDS011;51820;48.374;10.930;2023-02-15T15:09:13;19.52;;;11.70;;
65234;SDS011;51820;48.374;10.930;2023-02-15T15:11:48;21.67;;;12.68;;